sensor_id;sensor_type;location;lat;lon;timestamp;pressure;altitude;pressure_sealevel;temperature;humidity
75551;BME280;65071;53.082;18.218;2023-06-22T00:02:19;101444.72;;;20.39;76.70
75551;BME280;65071;53.082;18.218;2023-06-22T00:04:46;101447.03;;;20.43;76.77
75551;BME280;65071;53.082;18.218;2023-06-22T00:07:12;101445.35;;;20.45;76.64
75551;BME280;65071;53.082;18.218;2023-06-22T00:09:39;101444.89;;;20.47;76.65
75551;BME280;65071;53.082;18.218;2023-06-22T00:12:05;101449.50;;;20.46;76.55
75551;BME280;65071;53.082;18.218;2023-06-22T00:14:32;101456.45;;;20.46;76.71
75551;BME280;65071;53.082;18.218;2023-06-22T00:16:58;101457.60;;;20.46;76.81
75551;BME280;65071;53.082;18.218;2023-06-22T00:19:25;101460.38;;;20.46;76.90
75551;BME280;65071;53.082;18.218;2023-06-22T00:21:52;101465.40;;;20.46;77.00
75551;BME280;65071;53.082;18.218;2023-06-22T00:24:20;101465.64;;;20.47;76.87
75551;BME280;65071;53.082;18.218;2023-06-22T00:26:48;101468.10;;;20.47;76.99
75551;BME280;65071;53.082;18.218;2023-06-22T00:29:14;101458.60;;;20.47;77.00
75551;BME280;65071;53.082;18.218;2023-06-22T00:31:41;101457.70;;;20.45;76.90
75551;BME280;65071;53.082;18.218;2023-06-22T00:34:08;101463.30;;;20.44;77.02
75551;BME280;65071;53.082;18.218;2023-06-22T00:36:36;101465.59;;;20.43;77.05
75551;BME280;65071;53.082;18.218;2023-06-22T00:39:03;101462.04;;;20.43;77.13
75551;BME280;65071;53.082;18.218;2023-06-22T00:41:30;101457.94;;;20.42;77.18
75551;BME280;65071;53.082;18.218;2023-06-22T00:43:57;101463.54;;;20.41;77.09
75551;BME280;65071;53.082;18.218;2023-06-22T00:46:24;101466.50;;;20.41;77.06
75551;BME280;65071;53.082;18.218;2023-06-22T00:48:51;101466.73;;;20.39;77.06
75551;BME280;65071;53.082;18.218;2023-06-22T00:51:18;101472.70;;;20.38;77.44
75551;BME280;65071;53.082;18.218;2023-06-22T00:53:51;101466.45;;;20.36;77.84
75551;BME280;65071;53.082;18.218;2023-06-22T00:56:18;101469.13;;;20.34;77.49
75551;BME280;65071;53.082;18.218;2023-06-22T00:58:46;101469.73;;;20.32;77.72
75551;BME280;65071;53.082;18.218;2023-06-22T01:01:13;101469.66;;;20.31;77.54
75551;BME280;65071;53.082;18.218;2023-06-22T01:03:41;101467.72;;;20.30;77.31
75551;BME280;65071;53.082;18.218;2023-06-22T01:06:10;101469.34;;;20.31;77.25
75551;BME280;65071;53.082;18.218;2023-06-22T01:11:19;101466.82;;;20.33;77.51
75551;BME280;65071;53.082;18.218;2023-06-22T01:14:07;101465.21;;;20.33;77.42
75551;BME280;65071;53.082;18.218;2023-06-22T01:16:37;101464.38;;;20.29;77.29
75551;BME280;65071;53.082;18.218;2023-06-22T01:19:25;101466.48;;;20.29;77.13
75551;BME280;65071;53.082;18.218;2023-06-22T01:21:55;101467.43;;;20.25;77.59
75551;BME280;65071;53.082;18.218;2023-06-22T01:24:27;101472.83;;;20.22;77.23
75551;BME280;65071;53.082;18.218;2023-06-22T01:29:29;101471.60;;;20.14;77.26
75551;BME280;65071;53.082;18.218;2023-06-22T01:31:57;101471.54;;;20.12;77.18
75551;BME280;65071;53.082;18.218;2023-06-22T01:34:24;101468.43;;;20.07;76.54
75551;BME280;65071;53.082;18.218;2023-06-22T01:36:52;101467.92;;;20.06;76.52
75551;BME280;65071;53.082;18.218;2023-06-22T01:39:20;101465.53;;;20.04;76.41
75551;BME280;65071;53.082;18.218;2023-06-22T01:41:47;101470.93;;;20.04;76.07
75551;BME280;65071;53.082;18.218;2023-06-22T01:44:16;101469.27;;;20.03;76.15
75551;BME280;65071;53.082;18.218;2023-06-22T01:46:43;101470.23;;;20.01;75.76
75551;BME280;65071;53.082;18.218;2023-06-22T01:49:10;101467.61;;;19.97;75.85
75551;BME280;65071;53.082;18.218;2023-06-22T01:51:37;101471.13;;;19.94;75.59
75551;BME280;65071;53.082;18.218;2023-06-22T01:54:06;101470.36;;;19.90;75.83
75551;BME280;65071;53.082;18.218;2023-06-22T01:56:32;101465.27;;;19.85;75.74
75551;BME280;65071;53.082;18.218;2023-06-22T01:59:06;101465.08;;;19.79;75.64
75551;BME280;65071;53.082;18.218;2023-06-22T02:01:48;101470.25;;;19.74;75.45
75551;BME280;65071;53.082;18.218;2023-06-22T02:04:25;101474.66;;;19.68;75.66
75551;BME280;65071;53.082;18.218;2023-06-22T02:06:56;101468.98;;;19.63;75.58
75551;BME280;65071;53.082;18.218;2023-06-22T02:09:26;101472.52;;;19.58;75.42
75551;BME280;65071;53.082;18.218;2023-06-22T02:11:55;101474.95;;;19.53;75.38
75551;BME280;65071;53.082;18.218;2023-06-22T02:14:23;101471.23;;;19.48;75.52
75551;BME280;65071;53.082;18.218;2023-06-22T02:16:51;101474.80;;;19.43;75.57
75551;BME280;65071;53.082;18.218;2023-06-22T02:19:23;101474.71;;;19.39;75.66
75551;BME280;65071;53.082;18.218;2023-06-22T02:21:51;101473.97;;;19.35;75.54
75551;BME280;65071;53.082;18.218;2023-06-22T02:24:17;101476.42;;;19.30;75.59
75551;BME280;65071;53.082;18.218;2023-06-22T02:26:44;101477.59;;;19.25;75.88
75551;BME280;65071;53.082;18.218;2023-06-22T02:29:11;101481.71;;;19.23;75.84
75551;BME280;65071;53.082;18.218;2023-06-22T02:31:38;101490.89;;;19.19;76.35
75551;BME280;65071;53.082;18.218;2023-06-22T02:34:05;101493.04;;;19.15;76.38
75551;BME280;65071;53.082;18.218;2023-06-22T02:36:32;101502.41;;;19.12;75.92
75551;BME280;65071;53.082;18.218;2023-06-22T02:39:00;101503.27;;;19.09;75.68
75551;BME280;65071;53.082;18.218;2023-06-22T02:41:28;101505.58;;;19.07;75.88
75551;BME280;65071;53.082;18.218;2023-06-22T02:43:56;101508.70;;;19.05;75.87
75551;BME280;65071;53.082;18.218;2023-06-22T02:46:23;101506.80;;;19.05;75.79
75551;BME280;65071;53.082;18.218;2023-06-22T02:48:49;101506.29;;;19.06;75.56
75551;BME280;65071;53.082;18.218;2023-06-22T02:51:16;101503.23;;;19.07;75.53
75551;BME280;65071;53.082;18.218;2023-06-22T02:53:43;101507.68;;;19.09;75.62
75551;BME280;65071;53.082;18.218;2023-06-22T02:56:12;101507.84;;;19.12;75.52
75551;BME280;65071;53.082;18.218;2023-06-22T02:58:39;101507.95;;;19.17;75.47
75551;BME280;65071;53.082;18.218;2023-06-22T03:01:08;101505.05;;;19.24;75.32
75551;BME280;65071;53.082;18.218;2023-06-22T03:03:37;101508.70;;;19.30;75.50
75551;BME280;65071;53.082;18.218;2023-06-22T03:06:05;101515.22;;;19.36;75.35
75551;BME280;65071;53.082;18.218;2023-06-22T03:08:32;101516.58;;;19.41;75.22
75551;BME280;65071;53.082;18.218;2023-06-22T03:10:58;101516.80;;;19.48;75.09
75551;BME280;65071;53.082;18.218;2023-06-22T03:13:25;101521.55;;;19.58;74.87
75551;BME280;65071;53.082;18.218;2023-06-22T03:15:51;101527.52;;;19.72;74.77
75551;BME280;65071;53.082;18.218;2023-06-22T03:18:19;101523.52;;;19.88;74.44
75551;BME280;65071;53.082;18.218;2023-06-22T03:20:45;101526.89;;;20.03;73.98
75551;BME280;65071;53.082;18.218;2023-06-22T03:23:11;101530.08;;;20.16;73.13
75551;BME280;65071;53.082;18.218;2023-06-22T03:25:38;101528.56;;;20.26;72.53
75551;BME280;65071;53.082;18.218;2023-06-22T03:28:05;101530.19;;;20.37;72.34
75551;BME280;65071;53.082;18.218;2023-06-22T03:30:32;101537.42;;;20.46;71.78
75551;BME280;65071;53.082;18.218;2023-06-22T03:33:00;101536.05;;;20.57;71.75
75551;BME280;65071;53.082;18.218;2023-06-22T03:35:27;101534.61;;;20.67;70.52
75551;BME280;65071;53.082;18.218;2023-06-22T03:37:54;101537.27;;;20.74;69.74
75551;BME280;65071;53.082;18.218;2023-06-22T03:40:21;101540.55;;;20.85;69.61
75551;BME280;65071;53.082;18.218;2023-06-22T03:42:48;101545.10;;;20.95;69.66
75551;BME280;65071;53.082;18.218;2023-06-22T03:45:14;101550.54;;;21.04;69.02
75551;BME280;65071;53.082;18.218;2023-06-22T03:47:41;101557.02;;;21.15;68.37
75551;BME280;65071;53.082;18.218;2023-06-22T03:50:08;101561.52;;;21.32;68.07
75551;BME280;65071;53.082;18.218;2023-06-22T03:52:35;101561.83;;;21.43;67.11
75551;BME280;65071;53.082;18.218;2023-06-22T03:55:02;101565.01;;;21.56;66.94
75551;BME280;65071;53.082;18.218;2023-06-22T03:57:28;101564.52;;;21.79;66.42
75551;BME280;65071;53.082;18.218;2023-06-22T03:59:56;101564.80;;;22.20;65.68
75551;BME280;65071;53.082;18.218;2023-06-22T04:02:23;101563.20;;;22.55;65.16
75551;BME280;65071;53.082;18.218;2023-06-22T04:04:50;101562.90;;;22.82;63.54
75551;BME280;65071;53.082;18.218;2023-06-22T04:07:19;101556.38;;;23.13;63.28
75551;BME280;65071;53.082;18.218;2023-06-22T04:09:45;101558.60;;;23.53;62.51
75551;BME280;65071;53.082;18.218;2023-06-22T04:12:12;101556.50;;;24.01;60.99
75551;BME280;65071;53.082;18.218;2023-06-22T04:14:38;101558.19;;;24.48;59.67
75551;BME280;65071;53.082;18.218;2023-06-22T04:17:05;101565.17;;;24.96;56.60
75551;BME280;65071;53.082;18.218;2023-06-22T04:19:31;101565.18;;;25.19;56.69
75551;BME280;65071;53.082;18.218;2023-06-22T04:21:58;101564.80;;;25.32;57.66
75551;BME280;65071;53.082;18.218;2023-06-22T04:24:24;101563.95;;;25.24;56.02
75551;BME280;65071;53.082;18.218;2023-06-22T04:26:51;101564.79;;;24.95;55.83
75551;BME280;65071;53.082;18.218;2023-06-22T04:29:21;101567.64;;;24.60;56.49
75551;BME280;65071;53.082;18.218;2023-06-22T04:31:54;101568.75;;;24.39;57.06
75551;BME280;65071;53.082;18.218;2023-06-22T04:34:22;101566.77;;;24.23;57.17
75551;BME280;65071;53.082;18.218;2023-06-22T04:36:48;101567.08;;;24.15;57.45
75551;BME280;65071;53.082;18.218;2023-06-22T04:39:15;101568.58;;;24.03;58.10
75551;BME280;65071;53.082;18.218;2023-06-22T04:41:41;101567.85;;;23.99;58.05
75551;BME280;65071;53.082;18.218;2023-06-22T04:44:16;101565.84;;;23.99;57.97
75551;BME280;65071;53.082;18.218;2023-06-22T04:46:54;101561.70;;;24.02;57.98
75551;BME280;65071;53.082;18.218;2023-06-22T04:49:27;101558.40;;;24.03;57.87
75551;BME280;65071;53.082;18.218;2023-06-22T04:52:02;101560.40;;;24.08;57.85
75551;BME280;65071;53.082;18.218;2023-06-22T04:54:29;101558.13;;;24.16;57.78
75551;BME280;65071;53.082;18.218;2023-06-22T04:56:55;101559.17;;;24.29;57.44
75551;BME280;65071;53.082;18.218;2023-06-22T04:59:27;101561.18;;;24.41;57.40
75551;BME280;65071;53.082;18.218;2023-06-22T05:01:57;101565.07;;;24.47;56.93
75551;BME280;65071;53.082;18.218;2023-06-22T05:04:25;101563.97;;;24.53;56.71
75551;BME280;65071;53.082;18.218;2023-06-22T05:06:52;101567.19;;;24.55;56.58
75551;BME280;65071;53.082;18.218;2023-06-22T05:09:18;101573.05;;;24.64;56.57
75551;BME280;65071;53.082;18.218;2023-06-22T05:11:46;101570.22;;;24.66;56.55
75551;BME280;65071;53.082;18.218;2023-06-22T05:14:13;101576.33;;;24.56;55.83
75551;BME280;65071;53.082;18.218;2023-06-22T05:16:43;101579.91;;;24.45;55.86
75551;BME280;65071;53.082;18.218;2023-06-22T05:19:10;101579.86;;;24.51;56.65
75551;BME280;65071;53.082;18.218;2023-06-22T05:21:38;101589.25;;;24.48;56.13
75551;BME280;65071;53.082;18.218;2023-06-22T05:24:05;101591.20;;;24.38;56.01
75551;BME280;65071;53.082;18.218;2023-06-22T05:26:33;101598.94;;;24.28;56.35
75551;BME280;65071;53.082;18.218;2023-06-22T05:29:01;101597.20;;;24.29;56.37
75551;BME280;65071;53.082;18.218;2023-06-22T05:31:29;101589.19;;;24.34;56.41
75551;BME280;65071;53.082;18.218;2023-06-22T05:33:56;101589.40;;;24.33;55.57
75551;BME280;65071;53.082;18.218;2023-06-22T05:36:22;101593.05;;;24.35;56.08
75551;BME280;65071;53.082;18.218;2023-06-22T05:38:52;101596.53;;;24.40;56.31
75551;BME280;65071;53.082;18.218;2023-06-22T05:41:19;101601.84;;;24.52;56.16
75551;BME280;65071;53.082;18.218;2023-06-22T05:43:46;101612.02;;;24.53;55.87
75551;BME280;65071;53.082;18.218;2023-06-22T05:46:12;101605.98;;;24.58;56.06
75551;BME280;65071;53.082;18.218;2023-06-22T05:48:39;101600.02;;;24.68;55.53
75551;BME280;65071;53.082;18.218;2023-06-22T05:51:05;101605.90;;;24.78;55.80
75551;BME280;65071;53.082;18.218;2023-06-22T05:53:32;101606.26;;;24.86;55.78
75551;BME280;65071;53.082;18.218;2023-06-22T05:55:59;101600.05;;;24.97;55.32
75551;BME280;65071;53.082;18.218;2023-06-22T05:58:26;101597.32;;;25.06;55.06
75551;BME280;65071;53.082;18.218;2023-06-22T06:00:52;101602.61;;;25.17;54.68
75551;BME280;65071;53.082;18.218;2023-06-22T06:03:19;101596.61;;;25.22;54.47
75551;BME280;65071;53.082;18.218;2023-06-22T06:05:45;101588.78;;;25.18;53.65
75551;BME280;65071;53.082;18.218;2023-06-22T06:08:12;101595.96;;;25.20;53.26
75551;BME280;65071;53.082;18.218;2023-06-22T06:10:39;101591.69;;;25.14;53.22
75551;BME280;65071;53.082;18.218;2023-06-22T06:13:05;101590.38;;;25.21;53.62
75551;BME280;65071;53.082;18.218;2023-06-22T06:15:33;101591.22;;;25.25;53.71
75551;BME280;65071;53.082;18.218;2023-06-22T06:18:00;101590.11;;;25.34;53.55
75551;BME280;65071;53.082;18.218;2023-06-22T06:20:28;101590.16;;;25.42;53.13
75551;BME280;65071;53.082;18.218;2023-06-22T06:22:54;101594.65;;;25.55;52.96
75551;BME280;65071;53.082;18.218;2023-06-22T06:25:21;101595.47;;;25.69;52.78
75551;BME280;65071;53.082;18.218;2023-06-22T06:27:50;101592.12;;;25.84;52.73
75551;BME280;65071;53.082;18.218;2023-06-22T06:30:18;101594.73;;;25.93;52.24
75551;BME280;65071;53.082;18.218;2023-06-22T06:32:46;101595.09;;;26.00;52.04
75551;BME280;65071;53.082;18.218;2023-06-22T06:35:14;101603.36;;;26.13;51.86
75551;BME280;65071;53.082;18.218;2023-06-22T06:37:47;101611.47;;;26.15;51.04
75551;BME280;65071;53.082;18.218;2023-06-22T06:40:15;101611.20;;;26.16;50.46
75551;BME280;65071;53.082;18.218;2023-06-22T06:42:44;101605.42;;;26.20;50.36
75551;BME280;65071;53.082;18.218;2023-06-22T06:45:20;101603.29;;;26.27;50.31
75551;BME280;65071;53.082;18.218;2023-06-22T06:47:49;101606.36;;;26.34;49.88
75551;BME280;65071;53.082;18.218;2023-06-22T06:50:17;101604.45;;;26.35;49.13
75551;BME280;65071;53.082;18.218;2023-06-22T06:52:44;101594.74;;;26.45;49.07
75551;BME280;65071;53.082;18.218;2023-06-22T06:55:11;101593.98;;;26.50;48.69
75551;BME280;65071;53.082;18.218;2023-06-22T06:57:41;101596.95;;;26.51;48.42
75551;BME280;65071;53.082;18.218;2023-06-22T07:00:12;101595.27;;;26.52;48.22
75551;BME280;65071;53.082;18.218;2023-06-22T07:02:44;101586.59;;;26.64;48.46
75551;BME280;65071;53.082;18.218;2023-06-22T07:05:23;101588.33;;;26.68;48.13
75551;BME280;65071;53.082;18.218;2023-06-22T07:07:49;101589.88;;;26.76;47.70
75551;BME280;65071;53.082;18.218;2023-06-22T07:10:16;101593.06;;;26.79;46.78
75551;BME280;65071;53.082;18.218;2023-06-22T07:12:42;101596.09;;;26.81;46.63
75551;BME280;65071;53.082;18.218;2023-06-22T07:15:10;101590.20;;;26.84;46.97
75551;BME280;65071;53.082;18.218;2023-06-22T07:17:37;101589.48;;;26.91;46.61
75551;BME280;65071;53.082;18.218;2023-06-22T07:20:07;101588.42;;;26.89;45.41
75551;BME280;65071;53.082;18.218;2023-06-22T07:22:43;101591.79;;;26.98;45.29
75551;BME280;65071;53.082;18.218;2023-06-22T07:25:11;101588.93;;;27.05;45.23
75551;BME280;65071;53.082;18.218;2023-06-22T07:27:57;101590.47;;;27.16;44.23
75551;BME280;65071;53.082;18.218;2023-06-22T07:30:24;101587.50;;;27.30;44.44
75551;BME280;65071;53.082;18.218;2023-06-22T07:32:51;101587.70;;;27.44;44.42
75551;BME280;65071;53.082;18.218;2023-06-22T07:35:17;101590.64;;;27.55;43.56
75551;BME280;65071;53.082;18.218;2023-06-22T07:37:44;101597.42;;;27.55;42.74
75551;BME280;65071;53.082;18.218;2023-06-22T07:40:11;101601.16;;;27.56;43.80
75551;BME280;65071;53.082;18.218;2023-06-22T07:42:38;101603.58;;;27.60;43.37
75551;BME280;65071;53.082;18.218;2023-06-22T07:45:09;101609.91;;;27.61;42.26
75551;BME280;65071;53.082;18.218;2023-06-22T07:47:36;101611.41;;;27.61;42.52
75551;BME280;65071;53.082;18.218;2023-06-22T07:50:04;101607.36;;;27.61;42.83
75551;BME280;65071;53.082;18.218;2023-06-22T07:52:31;101608.56;;;27.65;42.77
75551;BME280;65071;53.082;18.218;2023-06-22T07:54:58;101612.49;;;27.73;43.00
75551;BME280;65071;53.082;18.218;2023-06-22T07:57:25;101607.23;;;27.80;43.26
75551;BME280;65071;53.082;18.218;2023-06-22T08:00:01;101606.79;;;27.83;43.06
75551;BME280;65071;53.082;18.218;2023-06-22T08:02:39;101605.20;;;27.90;42.23
75551;BME280;65071;53.082;18.218;2023-06-22T08:05:08;101605.42;;;27.88;41.74
75551;BME280;65071;53.082;18.218;2023-06-22T08:07:35;101611.27;;;27.98;42.42
75551;BME280;65071;53.082;18.218;2023-06-22T08:10:04;101616.04;;;27.98;40.95
75551;BME280;65071;53.082;18.218;2023-06-22T08:12:31;101614.50;;;27.89;41.42
75551;BME280;65071;53.082;18.218;2023-06-22T08:14:58;101610.45;;;27.86;41.52
75551;BME280;65071;53.082;18.218;2023-06-22T08:17:28;101615.70;;;27.91;41.80
75551;BME280;65071;53.082;18.218;2023-06-22T08:19:56;101624.67;;;27.88;41.54
75551;BME280;65071;53.082;18.218;2023-06-22T08:22:23;101622.25;;;27.80;41.56
75551;BME280;65071;53.082;18.218;2023-06-22T08:24:50;101616.95;;;27.76;40.96
75551;BME280;65071;53.082;18.218;2023-06-22T08:27:17;101615.99;;;27.89;40.51
75551;BME280;65071;53.082;18.218;2023-06-22T08:29:47;101619.15;;;27.99;39.93
75551;BME280;65071;53.082;18.218;2023-06-22T08:32:18;101621.89;;;27.97;40.52
75551;BME280;65071;53.082;18.218;2023-06-22T08:34:46;101622.92;;;27.98;40.81
75551;BME280;65071;53.082;18.218;2023-06-22T08:37:12;101619.65;;;28.01;40.39
75551;BME280;65071;53.082;18.218;2023-06-22T08:39:39;101610.04;;;28.05;40.18
75551;BME280;65071;53.082;18.218;2023-06-22T08:42:06;101617.20;;;28.13;39.76
75551;BME280;65071;53.082;18.218;2023-06-22T08:44:32;101615.80;;;28.16;39.84
75551;BME280;65071;53.082;18.218;2023-06-22T08:46:59;101617.98;;;28.28;40.04
75551;BME280;65071;53.082;18.218;2023-06-22T08:49:26;101620.00;;;28.41;40.06
75551;BME280;65071;53.082;18.218;2023-06-22T08:51:53;101618.19;;;28.42;39.46
75551;BME280;65071;53.082;18.218;2023-06-22T08:54:22;101611.08;;;28.21;39.45
75551;BME280;65071;53.082;18.218;2023-06-22T08:56:49;101613.88;;;28.20;39.62
75551;BME280;65071;53.082;18.218;2023-06-22T08:59:15;101609.84;;;28.26;39.47
75551;BME280;65071;53.082;18.218;2023-06-22T09:01:42;101609.34;;;28.30;39.60
75551;BME280;65071;53.082;18.218;2023-06-22T09:04:11;101610.64;;;28.39;38.80
75551;BME280;65071;53.082;18.218;2023-06-22T09:06:38;101610.45;;;28.51;39.07
75551;BME280;65071;53.082;18.218;2023-06-22T09:09:12;101609.91;;;28.62;38.76
75551;BME280;65071;53.082;18.218;2023-06-22T09:11:39;101613.08;;;28.66;38.59
75551;BME280;65071;53.082;18.218;2023-06-22T09:14:06;101612.13;;;28.62;38.21
75551;BME280;65071;53.082;18.218;2023-06-22T09:16:34;101611.16;;;28.52;37.60
75551;BME280;65071;53.082;18.218;2023-06-22T09:19:00;101607.89;;;28.56;38.57
75551;BME280;65071;53.082;18.218;2023-06-22T09:21:27;101606.33;;;28.46;37.76
75551;BME280;65071;53.082;18.218;2023-06-22T09:23:54;101602.79;;;28.41;37.77
75551;BME280;65071;53.082;18.218;2023-06-22T09:26:20;101593.41;;;28.47;38.05
75551;BME280;65071;53.082;18.218;2023-06-22T09:28:47;101593.02;;;28.59;38.16
75551;BME280;65071;53.082;18.218;2023-06-22T09:31:14;101589.63;;;28.65;37.19
75551;BME280;65071;53.082;18.218;2023-06-22T09:33:42;101591.37;;;28.72;37.33
75551;BME280;65071;53.082;18.218;2023-06-22T09:36:09;101585.58;;;28.71;37.10
75551;BME280;65071;53.082;18.218;2023-06-22T09:38:38;101583.39;;;28.77;37.44
75551;BME280;65071;53.082;18.218;2023-06-22T09:41:05;101580.58;;;28.75;36.50
75551;BME280;65071;53.082;18.218;2023-06-22T09:43:32;101583.92;;;28.73;36.76
75551;BME280;65071;53.082;18.218;2023-06-22T09:46:01;101580.54;;;28.60;36.70
75551;BME280;65071;53.082;18.218;2023-06-22T09:48:28;101577.13;;;28.53;37.18
75551;BME280;65071;53.082;18.218;2023-06-22T09:50:56;101574.70;;;28.60;37.38
75551;BME280;65071;53.082;18.218;2023-06-22T09:53:23;101576.55;;;28.73;37.21
75551;BME280;65071;53.082;18.218;2023-06-22T09:55:53;101574.92;;;28.89;36.50
75551;BME280;65071;53.082;18.218;2023-06-22T09:58:19;101574.16;;;29.00;35.86
75551;BME280;65071;53.082;18.218;2023-06-22T10:00:46;101577.79;;;29.05;35.83
75551;BME280;65071;53.082;18.218;2023-06-22T10:03:13;101574.96;;;29.04;36.22
75551;BME280;65071;53.082;18.218;2023-06-22T10:05:39;101572.23;;;29.07;35.28
75551;BME280;65071;53.082;18.218;2023-06-22T10:08:06;101576.02;;;29.09;35.77
75551;BME280;65071;53.082;18.218;2023-06-22T10:10:34;101577.64;;;29.13;35.26
75551;BME280;65071;53.082;18.218;2023-06-22T10:13:07;101575.16;;;29.17;35.18
75551;BME280;65071;53.082;18.218;2023-06-22T10:15:35;101575.61;;;29.22;34.34
75551;BME280;65071;53.082;18.218;2023-06-22T10:18:02;101577.05;;;29.21;34.20
75551;BME280;65071;53.082;18.218;2023-06-22T10:20:29;101568.13;;;29.20;34.17
75551;BME280;65071;53.082;18.218;2023-06-22T10:22:55;101572.93;;;29.17;34.92
75551;BME280;65071;53.082;18.218;2023-06-22T10:25:22;101571.29;;;29.09;34.86
75551;BME280;65071;53.082;18.218;2023-06-22T10:27:48;101571.73;;;29.05;34.71
75551;BME280;65071;53.082;18.218;2023-06-22T10:30:15;101569.31;;;28.92;34.66
75551;BME280;65071;53.082;18.218;2023-06-22T10:32:42;101558.78;;;28.91;34.53
75551;BME280;65071;53.082;18.218;2023-06-22T10:35:09;101554.73;;;28.98;34.08
75551;BME280;65071;53.082;18.218;2023-06-22T10:37:40;101562.12;;;29.10;34.51
75551;BME280;65071;53.082;18.218;2023-06-22T10:40:07;101557.73;;;29.13;33.85
75551;BME280;65071;53.082;18.218;2023-06-22T10:42:34;101561.71;;;29.12;33.36
75551;BME280;65071;53.082;18.218;2023-06-22T10:45:01;101569.33;;;29.08;33.57
75551;BME280;65071;53.082;18.218;2023-06-22T10:47:27;101569.05;;;29.01;34.14
75551;BME280;65071;53.082;18.218;2023-06-22T10:49:54;101565.60;;;29.01;34.15
75551;BME280;65071;53.082;18.218;2023-06-22T10:52:20;101560.46;;;29.00;34.48
75551;BME280;65071;53.082;18.218;2023-06-22T10:54:47;101556.39;;;29.05;34.12
75551;BME280;65071;53.082;18.218;2023-06-22T10:57:14;101555.40;;;29.07;34.36
75551;BME280;65071;53.082;18.218;2023-06-22T10:59:40;101551.92;;;29.05;33.91
75551;BME280;65071;53.082;18.218;2023-06-22T11:02:07;101544.10;;;29.06;33.75
75551;BME280;65071;53.082;18.218;2023-06-22T11:04:33;101540.25;;;29.01;33.85
75551;BME280;65071;53.082;18.218;2023-06-22T11:07:00;101538.42;;;29.01;34.46
75551;BME280;65071;53.082;18.218;2023-06-22T11:09:26;101541.16;;;29.10;34.68
75551;BME280;65071;53.082;18.218;2023-06-22T11:11:53;101545.21;;;29.09;33.71
75551;BME280;65071;53.082;18.218;2023-06-22T11:14:20;101548.90;;;29.10;33.31
75551;BME280;65071;53.082;18.218;2023-06-22T11:16:46;101546.53;;;29.15;33.26
75551;BME280;65071;53.082;18.218;2023-06-22T11:19:13;101538.76;;;29.22;33.12
75551;BME280;65071;53.082;18.218;2023-06-22T11:21:39;101545.02;;;29.32;32.46
75551;BME280;65071;53.082;18.218;2023-06-22T11:24:06;101542.76;;;29.42;32.19
75551;BME280;65071;53.082;18.218;2023-06-22T11:26:33;101549.27;;;29.43;32.94
75551;BME280;65071;53.082;18.218;2023-06-22T11:28:59;101546.49;;;29.47;33.22
75551;BME280;65071;53.082;18.218;2023-06-22T11:31:26;101550.30;;;29.50;33.43
75551;BME280;65071;53.082;18.218;2023-06-22T11:33:53;101546.95;;;29.45;34.41
75551;BME280;65071;53.082;18.218;2023-06-22T11:36:19;101544.20;;;29.38;35.37
75551;BME280;65071;53.082;18.218;2023-06-22T11:38:46;101544.91;;;29.25;34.16
75551;BME280;65071;53.082;18.218;2023-06-22T11:41:12;101545.61;;;29.18;34.56
75551;BME280;65071;53.082;18.218;2023-06-22T11:43:39;101542.96;;;29.20;34.44
75551;BME280;65071;53.082;18.218;2023-06-22T11:46:05;101540.22;;;29.31;34.00
75551;BME280;65071;53.082;18.218;2023-06-22T11:48:32;101536.98;;;29.48;33.43
75551;BME280;65071;53.082;18.218;2023-06-22T11:50:59;101539.13;;;29.53;33.08
75551;BME280;65071;53.082;18.218;2023-06-22T11:53:26;101541.45;;;29.53;33.51
75551;BME280;65071;53.082;18.218;2023-06-22T11:55:53;101538.77;;;29.52;33.52
75551;BME280;65071;53.082;18.218;2023-06-22T11:58:22;101538.29;;;29.54;33.09
75551;BME280;65071;53.082;18.218;2023-06-22T12:00:48;101530.34;;;29.59;33.45
75551;BME280;65071;53.082;18.218;2023-06-22T12:03:16;101532.05;;;29.62;33.07
75551;BME280;65071;53.082;18.218;2023-06-22T12:05:43;101532.34;;;29.59;33.50
75551;BME280;65071;53.082;18.218;2023-06-22T12:08:10;101527.46;;;29.64;32.36
75551;BME280;65071;53.082;18.218;2023-06-22T12:10:36;101526.88;;;29.62;32.40
75551;BME280;65071;53.082;18.218;2023-06-22T12:13:03;101521.74;;;29.52;32.42
75551;BME280;65071;53.082;18.218;2023-06-22T12:15:29;101509.25;;;29.49;32.53
75551;BME280;65071;53.082;18.218;2023-06-22T12:17:56;101506.65;;;29.50;31.68
75551;BME280;65071;53.082;18.218;2023-06-22T12:20:22;101504.27;;;29.52;31.29
75551;BME280;65071;53.082;18.218;2023-06-22T12:22:49;101501.71;;;29.61;31.01
75551;BME280;65071;53.082;18.218;2023-06-22T12:25:18;101500.16;;;29.71;31.47
75551;BME280;65071;53.082;18.218;2023-06-22T12:27:44;101502.32;;;29.77;31.36
75551;BME280;65071;53.082;18.218;2023-06-22T12:30:11;101503.35;;;29.79;31.62
75551;BME280;65071;53.082;18.218;2023-06-22T12:32:37;101501.12;;;29.71;31.65
75551;BME280;65071;53.082;18.218;2023-06-22T12:35:04;101504.02;;;29.58;31.59
75551;BME280;65071;53.082;18.218;2023-06-22T12:37:30;101498.44;;;29.57;31.79
75551;BME280;65071;53.082;18.218;2023-06-22T12:39:58;101494.13;;;29.64;31.90
75551;BME280;65071;53.082;18.218;2023-06-22T12:42:24;101493.13;;;29.68;31.63
75551;BME280;65071;53.082;18.218;2023-06-22T12:44:52;101491.47;;;29.69;31.32
75551;BME280;65071;53.082;18.218;2023-06-22T12:47:19;101490.97;;;29.77;31.51
75551;BME280;65071;53.082;18.218;2023-06-22T12:49:46;101488.05;;;29.80;31.01